createdAt,value
2022-11-19T00:04:07.803Z,-3.00
2022-11-19T00:08:10.518Z,-3.00
2022-11-19T00:12:38.912Z,-3.00
2022-11-19T00:16:41.464Z,-3.10
2022-11-19T00:20:43.550Z,-3.10
2022-11-19T00:24:45.642Z,-3.10
2022-11-19T00:28:47.485Z,-3.10
2022-11-19T00:32:51.593Z,-3.10
2022-11-19T00:37:17.194Z,-3.20
2022-11-19T00:41:19.271Z,-3.20
2022-11-19T00:45:21.200Z,-3.20
2022-11-19T00:49:24.238Z,-3.20
2022-11-19T00:53:45.858Z,-3.20
2022-11-19T00:57:47.852Z,-3.20
2022-11-19T01:01:49.868Z,-3.20
2022-11-19T01:06:19.817Z,-3.30
2022-11-19T01:10:28.167Z,-3.40
2022-11-19T01:14:31.233Z,-3.40
2022-11-19T01:18:33.176Z,-3.30
2022-11-19T01:22:35.074Z,-3.40
2022-11-19T01:26:41.656Z,-3.40
2022-11-19T01:31:13.800Z,-3.40
2022-11-19T01:35:15.796Z,-3.40
2022-11-19T01:39:18.290Z,-3.40
2022-11-19T01:43:40.742Z,-3.40
2022-11-19T01:47:44.952Z,-3.30
2022-11-19T01:51:46.736Z,-3.40
2022-11-19T01:55:50.616Z,-3.40
2022-11-19T01:59:52.999Z,-3.40
2022-11-19T02:03:55.386Z,-3.50
2022-11-19T02:08:39.561Z,-3.50
2022-11-19T02:13:35.262Z,-3.50
2022-11-19T02:18:08.475Z,-3.60
2022-11-19T02:22:29.782Z,-3.60
2022-11-19T02:27:10.095Z,-3.60
2022-11-19T02:31:30.707Z,-3.50
2022-11-19T02:35:48.647Z,-3.50
2022-11-19T02:40:23.427Z,-3.50
2022-11-19T02:45:00.837Z,-3.60
2022-11-19T02:49:02.904Z,-3.60
2022-11-19T02:53:05.520Z,-3.60
2022-11-19T02:57:36.292Z,-3.70
2022-11-19T03:06:54.705Z,-3.70
2022-11-19T03:10:56.799Z,-3.70
2022-11-19T03:15:45.344Z,-3.70
2022-11-19T03:19:58.765Z,-3.70
2022-11-19T03:24:12.821Z,-3.70
2022-11-19T03:28:21.069Z,-3.70
2022-11-19T03:32:54.124Z,-3.70
2022-11-19T03:37:22.592Z,-3.70
2022-11-19T03:41:51.218Z,-3.60
2022-11-19T03:46:22.802Z,-3.60
2022-11-19T03:50:29.726Z,-3.60
2022-11-19T03:54:32.005Z,-3.60
2022-11-19T03:59:11.316Z,-3.60
2022-11-19T04:03:16.746Z,-3.50
2022-11-19T04:07:32.217Z,-3.50
2022-11-19T04:11:34.189Z,-3.50
2022-11-19T04:15:37.145Z,-3.40
2022-11-19T04:19:39.160Z,-3.40
2022-11-19T04:23:41.003Z,-3.40
2022-11-19T04:27:45.913Z,-3.30
2022-11-19T04:31:48.007Z,-3.40
2022-11-19T04:35:49.932Z,-3.50
2022-11-19T04:40:24.105Z,-3.60
2022-11-19T04:44:27.093Z,-3.70
2022-11-19T04:48:28.892Z,-3.70
2022-11-19T04:53:33.582Z,-3.80
2022-11-19T04:57:35.536Z,-3.70
2022-11-19T05:01:37.487Z,-3.80
2022-11-19T05:05:39.468Z,-3.70
2022-11-19T05:09:41.370Z,-3.70
2022-11-19T05:13:43.306Z,-3.70
2022-11-19T05:17:45.483Z,-3.70
2022-11-19T05:21:50.727Z,-3.60
2022-11-19T05:25:52.948Z,-3.70
2022-11-19T05:30:45.131Z,-3.80
2022-11-19T05:34:48.575Z,-3.80
2022-11-19T05:38:53.687Z,-3.80
2022-11-19T05:43:49.414Z,-3.70
2022-11-19T05:48:50.408Z,-3.50
2022-11-19T05:52:54.546Z,-3.40
2022-11-19T05:56:56.576Z,-3.40
2022-11-19T06:00:59.457Z,-3.60
2022-11-19T06:05:01.664Z,-3.50
2022-11-19T06:09:04.073Z,-3.40
2022-11-19T06:13:05.969Z,-3.40
2022-11-19T06:17:10.238Z,-3.50
2022-11-19T06:21:12.540Z,-3.50
2022-11-19T06:25:14.473Z,-3.40
2022-11-19T06:29:18.681Z,-3.30
2022-11-19T06:33:24.418Z,-3.20
2022-11-19T06:38:23.587Z,-3.20
2022-11-19T06:42:38.591Z,-3.20
2022-11-19T06:46:54.820Z,-3.20
2022-11-19T06:51:50.292Z,-3.20
2022-11-19T06:56:45.409Z,-3.10
2022-11-19T07:00:51.015Z,-3.10
2022-11-19T07:04:56.500Z,-3.10
2022-11-19T07:08:58.349Z,-3.00
2022-11-19T07:13:01.188Z,-2.90
2022-11-19T07:17:08.711Z,-2.90
2022-11-19T07:21:10.754Z,-2.90
2022-11-19T07:25:40.553Z,-3.00
2022-11-19T07:29:48.527Z,-2.90
2022-11-19T07:34:19.642Z,-2.80
2022-11-19T07:38:53.304Z,-3.20
2022-11-19T07:42:55.180Z,-3.70
2022-11-19T07:47:16.558Z,-3.90
2022-11-19T07:51:24.080Z,-3.90
2022-11-19T07:55:37.462Z,-3.90
2022-11-19T08:00:05.348Z,-3.90
2022-11-19T08:04:14.383Z,-3.80
2022-11-19T08:08:16.248Z,-3.70
2022-11-19T08:12:18.104Z,-3.90
2022-11-19T08:17:32.195Z,-3.90
2022-11-19T08:21:39.680Z,-3.70
2022-11-19T08:26:32.204Z,-3.40
2022-11-19T08:30:41.156Z,-3.10
2022-11-19T08:35:00.424Z,-2.90
2022-11-19T08:39:06.905Z,-2.60
2022-11-19T08:43:24.333Z,-2.60
2022-11-19T08:47:27.495Z,-2.70
2022-11-19T08:51:54.700Z,-2.40
2022-11-19T08:56:25.561Z,-1.80
2022-11-19T09:00:55.974Z,-1.70
2022-11-19T09:04:57.762Z,-1.60
2022-11-19T09:09:01.359Z,-1.50
2022-11-19T09:13:03.709Z,-1.40
2022-11-19T09:17:05.619Z,-2.20
2022-11-19T09:21:08.959Z,-2.80
2022-11-19T09:25:11.011Z,-3.00
2022-11-19T09:29:14.211Z,-3.20
2022-11-19T09:33:20.302Z,-3.00
2022-11-19T09:37:24.362Z,-2.70
2022-11-19T09:41:51.964Z,-2.60
2022-11-19T09:46:22.416Z,-2.60
2022-11-19T09:50:29.638Z,-2.90
2022-11-19T09:54:46.712Z,-3.10
2022-11-19T09:58:49.878Z,-3.20
2022-11-19T10:02:57.335Z,-3.60
2022-11-19T10:13:23.734Z,-3.90
2022-11-19T10:17:54.131Z,-3.90
2022-11-19T10:22:45.379Z,-3.80
2022-11-19T10:27:48.415Z,-3.70
2022-11-19T10:32:30.227Z,-3.70
2022-11-19T10:36:42.091Z,-3.20
2022-11-19T10:41:02.073Z,-2.70
2022-11-19T10:45:18.326Z,-2.30
2022-11-19T10:49:21.625Z,-2.00
2022-11-19T10:53:29.338Z,-1.70
2022-11-19T10:57:33.258Z,-2.10
2022-11-19T11:01:44.610Z,-2.00
2022-11-19T11:06:45.286Z,-2.00
2022-11-19T11:10:47.455Z,-2.00
2022-11-19T11:14:55.738Z,-1.70
2022-11-19T11:18:59.011Z,-1.80
2022-11-19T11:23:10.531Z,-2.30
2022-11-19T11:28:06.214Z,-2.60
2022-11-19T11:32:27.553Z,-2.90
2022-11-19T11:36:35.458Z,-2.70
2022-11-19T11:40:40.746Z,-2.90
2022-11-19T11:44:54.407Z,-2.30
2022-11-19T11:49:04.729Z,-1.80
2022-11-19T11:53:43.094Z,-2.30
2022-11-19T11:57:55.163Z,-2.70
2022-11-19T12:02:08.513Z,-2.40
2022-11-19T12:06:16.909Z,-1.90
2022-11-19T12:11:14.094Z,-1.50
2022-11-19T12:16:18.847Z,-1.40
2022-11-19T12:20:34.059Z,-1.40
2022-11-19T12:24:55.666Z,-1.20
2022-11-19T12:29:18.192Z,-1.10
2022-11-19T12:33:36.215Z,-1.10
2022-11-19T12:37:49.238Z,-1.20
2022-11-19T12:41:59.145Z,-1.50
2022-11-19T12:47:05.387Z,-1.60
2022-11-19T12:51:12.936Z,-1.70
2022-11-19T13:00:24.048Z,-1.70
2022-11-19T13:05:29.140Z,-1.80
2022-11-19T13:09:41.003Z,-2.20
2022-11-19T13:14:15.344Z,-2.20
2022-11-19T13:18:40.189Z,-2.30
2022-11-19T13:23:07.196Z,-2.20
2022-11-19T13:27:20.165Z,-2.20
2022-11-19T13:31:27.551Z,-2.10
2022-11-19T13:36:05.310Z,-2.20
2022-11-19T13:40:21.033Z,-2.20
2022-11-19T13:44:41.175Z,-2.30
2022-11-19T13:48:49.457Z,-2.40
2022-11-19T13:52:54.938Z,-2.60
2022-11-19T13:58:04.086Z,-2.90
2022-11-19T14:02:35.209Z,-3.00
2022-11-19T14:06:50.870Z,-3.20
2022-11-19T14:11:21.805Z,-3.60
2022-11-19T14:16:08.509Z,-3.80
2022-11-19T14:20:56.005Z,-3.90
2022-11-19T14:25:18.908Z,-3.80
2022-11-19T14:29:27.508Z,-4.20
2022-11-19T14:34:00.014Z,-3.90
2022-11-19T14:38:30.774Z,-3.70
2022-11-19T14:42:32.759Z,-3.60
2022-11-19T14:46:44.866Z,-3.50
2022-11-19T14:51:07.413Z,-3.60
2022-11-19T15:00:48.164Z,-3.70
2022-11-19T15:05:05.735Z,-3.70
2022-11-19T15:09:11.833Z,-3.70
2022-11-19T15:13:41.876Z,-3.90
2022-11-19T15:18:41.679Z,-4.00
2022-11-19T15:23:07.603Z,-4.30
2022-11-19T15:27:21.963Z,-4.40
2022-11-19T15:32:02.813Z,-4.50
2022-11-19T15:36:26.377Z,-4.70
2022-11-19T15:41:00.156Z,-4.70
2022-11-19T15:45:30.388Z,-4.50
2022-11-19T15:49:36.211Z,-4.60
2022-11-19T15:53:38.420Z,-4.70
2022-11-19T15:58:36.396Z,-4.80
2022-11-19T16:02:43.912Z,-4.90
2022-11-19T16:06:53.108Z,-4.90
2022-11-19T16:11:20.252Z,-4.80
2022-11-19T16:15:44.632Z,-4.60
2022-11-19T16:20:11.784Z,-4.80
2022-11-19T16:24:39.145Z,-4.60
2022-11-19T16:29:15.359Z,-4.80
2022-11-19T16:33:27.785Z,-4.80
2022-11-19T16:37:29.752Z,-4.60
2022-11-19T16:41:50.310Z,-4.40
2022-11-19T16:45:56.711Z,-4.30
2022-11-19T16:50:32.193Z,-4.20
2022-11-19T16:54:50.597Z,-4.20
2022-11-19T16:58:57.296Z,-4.20
2022-11-19T17:03:02.905Z,-4.20
2022-11-19T17:07:14.649Z,-4.10
2022-11-19T17:11:42.408Z,-4.10
2022-11-19T17:15:48.424Z,-4.00
2022-11-19T17:19:50.308Z,-4.00
2022-11-19T17:23:52.559Z,-4.00
2022-11-19T17:28:03.869Z,-4.00
2022-11-19T17:32:05.903Z,-4.00
2022-11-19T17:36:13.805Z,-3.90
2022-11-19T17:40:15.738Z,-3.90
2022-11-19T17:44:42.659Z,-3.90
2022-11-19T17:48:47.855Z,-3.90
2022-11-19T17:52:55.377Z,-3.90
2022-11-19T17:56:57.244Z,-4.00
2022-11-19T18:00:59.166Z,-4.00
2022-11-19T18:05:01.034Z,-4.00
2022-11-19T18:09:03.624Z,-4.00
2022-11-19T18:13:06.208Z,-4.00
2022-11-19T18:17:35.271Z,-4.30
2022-11-19T18:21:49.553Z,-4.30
2022-11-19T18:25:52.635Z,-4.10
2022-11-19T18:29:55.711Z,-4.20
2022-11-19T18:34:47.956Z,-4.10
2022-11-19T18:38:55.735Z,-4.10
2022-11-19T18:43:16.184Z,-4.00
2022-11-19T18:47:23.431Z,-4.00
2022-11-19T18:51:27.638Z,-4.00
2022-11-19T18:55:30.748Z,-4.10
2022-11-19T18:59:32.627Z,-4.10
2022-11-19T19:03:35.403Z,-4.00
2022-11-19T19:07:42.778Z,-4.20
2022-11-19T19:12:17.666Z,-4.20
2022-11-19T19:16:39.101Z,-4.10
2022-11-19T19:20:45.337Z,-4.20
2022-11-19T19:24:47.303Z,-4.20
2022-11-19T19:28:53.869Z,-4.10
2022-11-19T19:33:59.106Z,-4.10
2022-11-19T19:38:01.068Z,-4.20
2022-11-19T19:43:06.460Z,-4.10
2022-11-19T19:47:33.857Z,-4.20
2022-11-19T19:51:42.098Z,-4.40
2022-11-19T19:55:44.087Z,-4.40
2022-11-19T19:59:48.314Z,-4.30
2022-11-19T20:03:54.510Z,-4.20
2022-11-19T20:08:09.253Z,-4.20
2022-11-19T20:12:56.783Z,-4.20
2022-11-19T20:16:58.839Z,-4.20
2022-11-19T20:21:01.310Z,-4.20
2022-11-19T20:25:17.052Z,-4.10
2022-11-19T20:29:22.007Z,-4.20
2022-11-19T20:33:38.312Z,-4.30
2022-11-19T20:37:41.836Z,-4.50
2022-11-19T20:46:28.378Z,-4.20
2022-11-19T20:50:30.310Z,-4.20
2022-11-19T20:54:39.512Z,-4.10
2022-11-19T20:58:44.223Z,-4.10
2022-11-19T21:02:54.388Z,-4.10
2022-11-19T21:06:56.415Z,-4.10
2022-11-19T21:11:01.932Z,-4.10
2022-11-19T21:15:29.623Z,-4.10
2022-11-19T21:19:44.027Z,-4.20
2022-11-19T21:23:46.024Z,-4.20
2022-11-19T21:27:53.780Z,-4.20
2022-11-19T21:31:55.777Z,-4.10
2022-11-19T21:35:59.245Z,-4.10
2022-11-19T21:40:02.396Z,-4.00
2022-11-19T21:44:07.193Z,-4.00
2022-11-19T21:48:09.458Z,-4.00
2022-11-19T21:52:15.624Z,-4.00
2022-11-19T21:56:19.804Z,-4.00
2022-11-19T22:00:21.815Z,-4.10
2022-11-19T22:04:23.987Z,-4.10
2022-11-19T22:08:41.086Z,-4.00
2022-11-19T22:12:43.412Z,-4.10
2022-11-19T22:16:45.315Z,-4.10
2022-11-19T22:20:47.492Z,-4.00
2022-11-19T22:24:50.559Z,-4.10
2022-11-19T22:29:20.095Z,-4.20
2022-11-19T22:33:23.203Z,-4.20
2022-11-19T22:37:27.354Z,-4.10
2022-11-19T22:41:45.564Z,-4.00
2022-11-19T22:45:52.262Z,-4.00
2022-11-19T22:49:54.270Z,-3.90
2022-11-19T22:53:56.431Z,-3.90
2022-11-19T22:57:58.388Z,-3.90
2022-11-19T23:02:25.821Z,-3.90
2022-11-19T23:06:28.512Z,-3.90
2022-11-19T23:10:30.508Z,-3.90
2022-11-19T23:14:32.371Z,-3.90
2022-11-19T23:18:37.466Z,-3.90
2022-11-19T23:22:45.622Z,-3.80
2022-11-19T23:26:47.550Z,-3.80
2022-11-19T23:30:50.698Z,-3.80
2022-11-19T23:34:53.749Z,-3.80
2022-11-19T23:38:55.714Z,-3.80
2022-11-19T23:42:57.553Z,-3.70
2022-11-19T23:47:11.933Z,-3.70
2022-11-19T23:51:16.390Z,-3.70
2022-11-19T23:55:18.300Z,-3.70
2022-11-19T23:59:25.325Z,-3.90
